Aggieland, Texas
Current Conditions -  °F | °C
As of 11:53 AM on Saturday 25 Oct 2014 (Local Time) from KCLL Reporting Station
Clear Clear  
Wind Chill: 78°   Ceiling: Unl
Heat Index: 79°   Visibility: 10mi
Dew Point: 59°   Wind: 5mph
Humidity: 52%   Direction: 240°WSW
Pressure: 30.18"   Gusts: NA
Location:  30.5943°N, 96.3574°W
Report Text: KCLL 251653Z 24004KT 10SM CLR 26/15 A3018 RMK AO2 SLP216 T02560150
Loading
Personal Weather Stations






























Interactive Weather Map
Tropical Storm Tracking
New forecast layout! Learn more

10-Day Weather Forecast

Advertisements
Track Severe Weather on mobile